CNH4 weather

Niagara Health System Heliport
St. Catharines, Ontario, Canada

Public forecast

Using degrees Celsius for public forecast. Weather courtesy of forecast.io.

Closest aviation weather report (METAR) to Niagara Health System Heliport

Closest report is Niagara District Airport, 5.3 nm (9.9 km) ENE. Retrieved 2019/10/24 01:00 UTC (1 hour ago):

CYSN 240100Z 23008KT 15SM SKC 10/04 A3003 RMK LAST STFD OBS/NEXT 241100 UTC SLP172

Closest aviation forecast (TAF) to Niagara Health System Heliport

Forecast is more than 6 hours old.

Closest forecast is Niagara District Airport, 5.3 nm (9.9 km) ENE. Retrieved 2019/10/23 20:00 UTC (6 hours ago):

TAF CYSN 231938Z 2320/2401 24018G30KT P6SM SCT050 FM232300 24012G22KT P6SM FEW050 BECMG 2400/2401 24010KT RMK NXT FCST WILL BE ISSUED AT 241245Z